Singapore Changi Airport

WSSS · 新加坡

罗盘
风向 的 风向 020° 新加坡樟宜机场 2C/20C
风: 5 kt, 2 beaufort

5 kt

改变
0 ft 6.000 12.000 18.000 24.000 30.000
Cloud Cloud
FEW 1.600
Cloud Cloud Cloud Cloud
SCT 16.000
Cloud Cloud Cloud Cloud Cloud Cloud
BKN 30.000
METAR WSSL 072000Z 02005KT 9999 FEW016 SCT160 BKN300 25/24 Q1007

METAR 新加坡樟宜机场 - WSSS/SIN

新加坡樟宜机场是,新加坡中的大型机场。 该机场有4条跑道: 2C/20C, 2L/20R, 2/20 和 2R/20L. 该领域的国际民航组织标志是WSSS 它的国际航空运输协会代码是SIN.

这份报告是针对2023年2月8日 04:00, 当地时间在實里達機場进行的。

机场观察

风向为020°,速度为5 kt。

可见度为10 km 或者更多。

有几云在1.600 ft的高度, 疏云,零星散落的云朵在16.000 ft的高度 和 碎云在30.000 ft的高度。 破损或更高的上限为30.000 ft。

温度和风寒是25 °C。 露点为24 °C,相对湿度为94%。 海平面上的气压为1007 hPa (QNH)。

白天

今天,太阳从07:16升起,在19:20降落。 这适用于新加坡樟宜机场,世界夏令时可能有所不同。 当地时间与世界标准时间之间的时差为+8 小时。 当前,没有夏令时有效。

公司介绍

在这个机场,你可以找到飞行学校。 本场上唯一已知的公司是Jacklyne Ong。

体会

到Vliegles.nl去找飞行课程,跳伞和其他飞行体验。 浏览页面,了解新加坡樟宜机场附近所有可用的活动。 你也可以使用搜索功能来寻找你所在地附近的特定飞行课程、跳伞或其他飞行体验。

跑道

Id 标题 侧风 逆风 侧风 %
2C/20C 023°-203° 5 kt 5 %
2L/20R 023°-203° 5 kt 5 %
2/20 023°-203° 5 kt 5 %
2R/20L 023°-203° 5 kt 5 %

逆风成分最大的方向会被突出显示,并用于横风计算。 这并不一定意味着这个方向在使用。

乌云

1.600 ft FEW 几云
16.000 ft SCT 疏云,零星散落的云朵
30.000 ft BKN 碎云

温度 & 天气

温度 25 °C
露点 24 °C
相对湿度 94%
Kp-index 3 (0-9)

白天

日出
07:16 (2:14)
中午
13:18
日落
19:20

小工具

你想在你的网站上有一个关于新加坡樟宜机场的当前航空天气(METAR)的小部件吗?

显示HTML代码

我们和第三方通过cookies跟踪您在我们网站上的互联网行为。如果你继续,我们认为你同意我们的饼干政策